Cse Wisdom Express — 3FVD8 — position and weather

sailwx.info

Track history (hours):
 
Tides and Currents Weather Stations Pressure Air Temp Water Temp Dewpoint Dewpoint Depression Visibility Wind Speed Wind Dir Waves Ship Positions

Cse Wisdom Express

Last reported at 2017-Oct-10 23:57 UTC. Time now 2017-Oct-17 00:59 UTC.
Position N 34°41' E 135°17'.

Length 122 m; draft 9 m.

Type: Cargo ship. MMSI: 372522000.

Date/timePositionNaut miles runAvg speedWind from/ knotsBaromVisibWave heightAir tempDewpointWater temp
2017-Oct-10 23:57N 34°41' E 135°17'0 0.0
2017-Oct-10 23:27N 34°41' E 135°17'0 0.0
2017-Oct-10 22:57N 34°41' E 135°17'0 0.0
2017-Oct-10 22:30N 34°41' E 135°17'2 3.0
2017-Oct-10 22:00N 34°40' E 135°18'3 6.3
2017-Oct-10 21:30N 34°38' E 135°16'2 4.3
2017-Oct-10 20:56N 34°37' E 135°13'0 0.1
2017-Oct-10 20:20N 34°37' E 135°13'0 0.0
2017-Oct-10 19:50N 34°37' E 135°13'0 0.0
2017-Oct-10 19:08N 34°37' E 135°13'0 0.0
2017-Oct-10 18:50N 34°37' E 135°13'0 0.0
2017-Oct-10 18:14N 34°37' E 135°13'0 0.0
2017-Oct-10 17:56N 34°37' E 135°13'0 0.0
2017-Oct-10 16:44N 34°37' E 135°13'0 0.0
2017-Oct-10 16:26N 34°37' E 135°13'0 0.0
2017-Oct-10 15:56N 34°37' E 135°13'0 0.0
2017-Oct-10 15:26N 34°37' E 135°13'0 0.0
2017-Oct-10 14:56N 34°37' E 135°13'0 0.0
2017-Oct-10 13:50N 34°37' E 135°13'0 0.0
2017-Oct-10 13:26N 34°37' E 135°13'0 0.0
2017-Oct-10 12:56N 34°37' E 135°13'1 2.0
2017-Oct-10 12:30N 34°37' E 135°14'5 9.8
2017-Oct-10 12:01N 34°37' E 135°20'4 7.7
2017-Oct-10 11:31N 34°37' E 135°25'0 0.3
2017-Oct-10 10:56N 34°38' E 135°25'0 0.0
2017-Oct-10 10:26N 34°38' E 135°25'0 0.0
2017-Oct-10 09:50N 34°38' E 135°25'0 0.0
2017-Oct-10 09:26N 34°38' E 135°25'0 0.0
2017-Oct-10 08:56N 34°38' E 135°25'0 0.0
2017-Oct-10 08:26N 34°38' E 135°25'0 0.0
2017-Oct-10 07:44N 34°38' E 135°25'0 0.0
2017-Oct-10 07:26N 34°38' E 135°25'0 0.0
2017-Oct-10 06:56N 34°38' E 135°25'0 0.0
2017-Oct-10 06:20N 34°38' E 135°25'0 0.0
2017-Oct-10 05:50N 34°38' E 135°25'0 0.0
2017-Oct-10 05:26N 34°38' E 135°25'0 0.0
2017-Oct-10 04:32N 34°38' E 135°25'0 0.0
2017-Oct-10 04:20N 34°38' E 135°25'0 0.0
2017-Oct-10 03:56N 34°38' E 135°25'0 0.0
2017-Oct-10 03:26N 34°38' E 135°25'0 0.0
2017-Oct-10 02:56N 34°38' E 135°25'0 0.0
2017-Oct-10 02:08N 34°38' E 135°25'0 0.0
2017-Oct-10 01:50N 34°38' E 135°25'0 0.0
2017-Oct-10 01:20N 34°38' E 135°25'0 0.0
2017-Oct-10 00:56N 34°38' E 135°25'0 0.0
2017-Oct-10 00:26N 34°38' E 135°25'0 0.1
2017-Oct-09 23:56N 34°38' E 135°25'0 0.1
2017-Oct-09 23:26N 34°38' E 135°25'0 0.0
2017-Oct-09 22:56N 34°38' E 135°25'0 0.0
2017-Oct-09 22:26N 34°38' E 135°25'0 0.2
2017-Oct-09 22:00N 34°38' E 135°25'2 3.7
2017-Oct-09 21:30N 34°37' E 135°22'0 0.6
2017-Oct-09 20:59N 34°37' E 135°22'0 0.0
2017-Oct-09 20:29N 34°37' E 135°22'0 0.0
2017-Oct-09 19:53N 34°37' E 135°22'0 0.0
2017-Oct-09 19:29N 34°37' E 135°22'0 0.0
2017-Oct-09 18:53N 34°37' E 135°22'0 0.0
2017-Oct-09 18:17N 34°37' E 135°22'0 0.0
2017-Oct-09 17:59N 34°37' E 135°22'0 0.0
2017-Oct-09 17:11N 34°37' E 135°22'0 0.1
2017-Oct-09 15:59N 34°37' E 135°22'0 0.0
2017-Oct-09 15:17N 34°37' E 135°22'0 0.1
2017-Oct-09 14:59N 34°37' E 135°22'0 0.1
2017-Oct-09 14:29N 34°37' E 135°22'0 0.0
2017-Oct-09 13:05N 34°37' E 135°22'0 0.0
2017-Oct-09 12:47N 34°37' E 135°22'0 0.0
2017-Oct-09 11:29N 34°37' E 135°22'0 0.1
2017-Oct-09 10:53N 34°37' E 135°22'0 0.0
2017-Oct-09 10:29N 34°37' E 135°22'0 0.1
2017-Oct-09 09:59N 34°37' E 135°22'0 0.0
2017-Oct-09 08:59N 34°37' E 135°22'0 0.0
2017-Oct-09 08:11N 34°37' E 135°22'0 0.0
2017-Oct-09 07:47N 34°37' E 135°22'0 0.0
2017-Oct-09 07:29N 34°37' E 135°22'0 0.0
2017-Oct-09 06:53N 34°37' E 135°22'0 0.0
2017-Oct-09 06:17N 34°37' E 135°22'0 0.0
2017-Oct-09 05:53N 34°37' E 135°22'0 0.0
2017-Oct-09 05:29N 34°37' E 135°22'0 0.0
2017-Oct-09 04:53N 34°37' E 135°22'0 0.0
2017-Oct-09 04:17N 34°37' E 135°22'0 0.1
2017-Oct-09 03:59N 34°37' E 135°22'0 0.1
2017-Oct-09 03:17N 34°37' E 135°22'0 0.0
2017-Oct-09 02:59N 34°37' E 135°22'0 0.1
2017-Oct-09 02:29N 34°37' E 135°22'0 0.0
2017-Oct-09 01:59N 34°37' E 135°22'0 0.0
2017-Oct-09 01:11N 34°37' E 135°22'0 0.0
2017-Oct-09 00:47N 34°37' E 135°22'0 0.0
2017-Oct-09 00:29N 34°37' E 135°22'0 0.0
2017-Oct-08 23:47N 34°37' E 135°22'0 0.0
2017-Oct-08 23:29N 34°37' E 135°22'0 0.0
2017-Oct-08 22:41N 34°37' E 135°22'0 0.0
2017-Oct-08 21:29N 34°37' E 135°22'0 0.0
2017-Oct-08 20:35N 34°37' E 135°22'0 0.1
2017-Oct-08 20:23N 34°37' E 135°22'0 0.0
2017-Oct-08 19:35N 34°37' E 135°22'0 0.0
2017-Oct-08 19:17N 34°37' E 135°22'0 0.0
2017-Oct-08 18:59N 34°37' E 135°22'0 0.0
2017-Oct-08 18:29N 34°37' E 135°22'0 0.0
2017-Oct-08 17:59N 34°37' E 135°22'0 0.0
2017-Oct-08 17:29N 34°37' E 135°22'0 0.0
2017-Oct-08 16:59N 34°37' E 135°22'0 0.1
2017-Oct-08 16:23N 34°37' E 135°22'0 0.0
2017-Oct-08 15:59N 34°37' E 135°22'0 0.1
2017-Oct-08 15:29N 34°37' E 135°22'0 0.0
2017-Oct-08 14:59N 34°37' E 135°22'0 0.0
2017-Oct-08 14:29N 34°37' E 135°22'0 0.0
2017-Oct-08 13:59N 34°37' E 135°22'0 0.0
2017-Oct-08 13:29N 34°37' E 135°22'0 0.0
2017-Oct-08 12:47N 34°37' E 135°22'0 0.2
2017-Oct-08 12:29N 34°37' E 135°22'0 0.1
2017-Oct-08 11:47N 34°37' E 135°22'0 0.1
2017-Oct-08 11:23N 34°37' E 135°22'0 0.1
2017-Oct-08 10:59N 34°37' E 135°22'0 0.1
2017-Oct-08 10:29N 34°37' E 135°22'0 0.1
2017-Oct-08 09:53N 34°37' E 135°22'0 0.0
2017-Oct-08 09:23N 34°37' E 135°22'0 0.0
2017-Oct-08 08:59N 34°37' E 135°22'0 0.0
2017-Oct-08 08:29N 34°37' E 135°22'0 0.0
2017-Oct-08 07:59N 34°37' E 135°22'0 0.0
2017-Oct-08 07:29N 34°37' E 135°22'0 0.0
2017-Oct-08 07:00N 34°37' E 135°22'0 0.2
2017-Oct-08 06:31N 34°37' E 135°22'0 0.1
2017-Oct-08 05:58N 34°37' E 135°22'3 6.8
2017-Oct-08 05:30N 34°36' E 135°18'612.8
2017-Oct-08 05:01N 34°35' E 135°11'612.9
2017-Oct-08 04:30N 34°36' E 135°03'  
2017-Oct-04 08:48N 34°31' E 134°41'514.0
2017-Oct-04 08:29N 34°33' E 134°47'714.6
2017-Oct-04 08:00N 34°36' E 134°54'712.9
2017-Oct-04 07:30N 34°37' E 135°02'611.6
2017-Oct-04 07:00N 34°36' E 135°09'612.1
2017-Oct-04 06:30N 34°37' E 135°16'5 7.9
2017-Oct-04 05:55N 34°42' E 135°15'0 0.1
2017-Oct-04 05:25N 34°42' E 135°15'0 0.0
2017-Oct-04 04:55N 34°42' E 135°15'0 0.0
2017-Oct-04 04:25N 34°42' E 135°15'0 0.0
2017-Oct-04 03:55N 34°42' E 135°15'0 0.0
2017-Oct-04 03:19N 34°42' E 135°15'0 0.0
2017-Oct-04 02:55N 34°42' E 135°15'0 0.0
2017-Oct-04 02:19N 34°42' E 135°15'0 0.0
2017-Oct-04 01:55N 34°42' E 135°15'0 0.0
2017-Oct-04 01:25N 34°42' E 135°15'0 0.0
2017-Oct-04 00:31N 34°42' E 135°15'0 0.0
2017-Oct-04 00:25N 34°42' E 135°15'0 0.0
2017-Oct-03 23:55N 34°42' E 135°15'0 0.0
2017-Oct-03 23:25N 34°42' E 135°15'0 0.0
2017-Oct-03 22:43N 34°42' E 135°15'0 0.6
2017-Oct-03 22:29N 34°42' E 135°15'2 4.5
2017-Oct-03 22:01N 34°40' E 135°15'3 3.6
2017-Oct-03 21:12N 34°38' E 135°18'0 0.2
2017-Oct-03 21:00N 34°38' E 135°18'0 0.1
2017-Oct-03 20:30N 34°38' E 135°18'0 0.1
2017-Oct-03 20:00N 34°38' E 135°18'0 0.0
2017-Oct-03 19:30N 34°38' E 135°18'0 0.1
2017-Oct-03 19:00N 34°38' E 135°18'0 0.1
2017-Oct-03 18:30N 34°38' E 135°18'0 0.0
2017-Oct-03 18:00N 34°38' E 135°18'0 0.0
2017-Oct-03 17:24N 34°38' E 135°18'0 0.0
2017-Oct-03 17:00N 34°38' E 135°18'0 0.0
2017-Oct-03 16:24N 34°38' E 135°18'0 0.0
2017-Oct-03 16:00N 34°38' E 135°18'0 0.0
2017-Oct-03 15:30N 34°38' E 135°18'0 0.0
2017-Oct-03 15:00N 34°38' E 135°18'0 0.0
2017-Oct-03 14:00N 34°38' E 135°18'0 0.0
2017-Oct-03 12:36N 34°38' E 135°18'0 0.6
2017-Oct-03 12:30N 34°38' E 135°18'3 6.2
2017-Oct-03 12:00N 34°36' E 135°15'612.2
2017-Oct-03 11:30N 34°35' E 135°08'611.0
2017-Oct-03 11:00N 34°37' E 135°02'510.3
2017-Oct-03 10:30N 34°36' E 134°56'11 7.5
2017-Oct-03 09:05N 34°34' E 134°43'613.0
2017-Oct-03 08:37N 34°40' E 134°46'  
Track history (hours):
 
Tides and Currents Weather Stations Pressure Air Temp Water Temp Dewpoint Dewpoint Depression Visibility Wind Speed Wind Dir Waves Ship Positions

Cse Wisdom Express

Last reported at 2017-Oct-10 23:57 UTC. Time now 2017-Oct-17 00:59 UTC.
Position N 34°41' E 135°17'.

Length 122 m; draft 9 m.

Type: Cargo ship. MMSI: 372522000.

Date/timePositionNaut miles runAvg speedWind from/ knotsBaromVisibWave heightAir tempDewpointWater temp
2017-Oct-10 23:57N 34°41' E 135°17'0 0.0
2017-Oct-10 23:27N 34°41' E 135°17'0 0.0
2017-Oct-10 22:57N 34°41' E 135°17'0 0.0
2017-Oct-10 22:30N 34°41' E 135°17'2 3.0
2017-Oct-10 22:00N 34°40' E 135°18'3 6.3
2017-Oct-10 21:30N 34°38' E 135°16'2 4.3
2017-Oct-10 20:56N 34°37' E 135°13'0 0.1
2017-Oct-10 20:20N 34°37' E 135°13'0 0.0
2017-Oct-10 19:50N 34°37' E 135°13'0 0.0
2017-Oct-10 19:08N 34°37' E 135°13'0 0.0
2017-Oct-10 18:50N 34°37' E 135°13'0 0.0
2017-Oct-10 18:14N 34°37' E 135°13'0 0.0
2017-Oct-10 17:56N 34°37' E 135°13'0 0.0
2017-Oct-10 16:44N 34°37' E 135°13'0 0.0
2017-Oct-10 16:26N 34°37' E 135°13'0 0.0
2017-Oct-10 15:56N 34°37' E 135°13'0 0.0
2017-Oct-10 15:26N 34°37' E 135°13'0 0.0
2017-Oct-10 14:56N 34°37' E 135°13'0 0.0
2017-Oct-10 13:50N 34°37' E 135°13'0 0.0
2017-Oct-10 13:26N 34°37' E 135°13'0 0.0
2017-Oct-10 12:56N 34°37' E 135°13'1 2.0
2017-Oct-10 12:30N 34°37' E 135°14'5 9.8
2017-Oct-10 12:01N 34°37' E 135°20'4 7.7
2017-Oct-10 11:31N 34°37' E 135°25'0 0.3
2017-Oct-10 10:56N 34°38' E 135°25'0 0.0
2017-Oct-10 10:26N 34°38' E 135°25'0 0.0
2017-Oct-10 09:50N 34°38' E 135°25'0 0.0
2017-Oct-10 09:26N 34°38' E 135°25'0 0.0
2017-Oct-10 08:56N 34°38' E 135°25'0 0.0
2017-Oct-10 08:26N 34°38' E 135°25'0 0.0
2017-Oct-10 07:44N 34°38' E 135°25'0 0.0
2017-Oct-10 07:26N 34°38' E 135°25'0 0.0
2017-Oct-10 06:56N 34°38' E 135°25'0 0.0
2017-Oct-10 06:20N 34°38' E 135°25'0 0.0
2017-Oct-10 05:50N 34°38' E 135°25'0 0.0
2017-Oct-10 05:26N 34°38' E 135°25'0 0.0
2017-Oct-10 04:32N 34°38' E 135°25'0 0.0
2017-Oct-10 04:20N 34°38' E 135°25'0 0.0
2017-Oct-10 03:56N 34°38' E 135°25'0 0.0
2017-Oct-10 03:26N 34°38' E 135°25'0 0.0
2017-Oct-10 02:56N 34°38' E 135°25'0 0.0
2017-Oct-10 02:08N 34°38' E 135°25'0 0.0
2017-Oct-10 01:50N 34°38' E 135°25'0 0.0
2017-Oct-10 01:20N 34°38' E 135°25'0 0.0
2017-Oct-10 00:56N 34°38' E 135°25'0 0.0
2017-Oct-10 00:26N 34°38' E 135°25'0 0.1
2017-Oct-09 23:56N 34°38' E 135°25'0 0.1
2017-Oct-09 23:26N 34°38' E 135°25'0 0.0
2017-Oct-09 22:56N 34°38' E 135°25'0 0.0
2017-Oct-09 22:26N 34°38' E 135°25'0 0.2
2017-Oct-09 22:00N 34°38' E 135°25'2 3.7
2017-Oct-09 21:30N 34°37' E 135°22'0 0.6
2017-Oct-09 20:59N 34°37' E 135°22'0 0.0
2017-Oct-09 20:29N 34°37' E 135°22'0 0.0
2017-Oct-09 19:53N 34°37' E 135°22'0 0.0
2017-Oct-09 19:29N 34°37' E 135°22'0 0.0
2017-Oct-09 18:53N 34°37' E 135°22'0 0.0
2017-Oct-09 18:17N 34°37' E 135°22'0 0.0
2017-Oct-09 17:59N 34°37' E 135°22'0 0.0
2017-Oct-09 17:11N 34°37' E 135°22'0 0.1
2017-Oct-09 15:59N 34°37' E 135°22'0 0.0
2017-Oct-09 15:17N 34°37' E 135°22'0 0.1
2017-Oct-09 14:59N 34°37' E 135°22'0 0.1
2017-Oct-09 14:29N 34°37' E 135°22'0 0.0
2017-Oct-09 13:05N 34°37' E 135°22'0 0.0
2017-Oct-09 12:47N 34°37' E 135°22'0 0.0
2017-Oct-09 11:29N 34°37' E 135°22'0 0.1
2017-Oct-09 10:53N 34°37' E 135°22'0 0.0
2017-Oct-09 10:29N 34°37' E 135°22'0 0.1
2017-Oct-09 09:59N 34°37' E 135°22'0 0.0
2017-Oct-09 08:59N 34°37' E 135°22'0 0.0
2017-Oct-09 08:11N 34°37' E 135°22'0 0.0
2017-Oct-09 07:47N 34°37' E 135°22'0 0.0
2017-Oct-09 07:29N 34°37' E 135°22'0 0.0
2017-Oct-09 06:53N 34°37' E 135°22'0 0.0
2017-Oct-09 06:17N 34°37' E 135°22'0 0.0
2017-Oct-09 05:53N 34°37' E 135°22'0 0.0
2017-Oct-09 05:29N 34°37' E 135°22'0 0.0
2017-Oct-09 04:53N 34°37' E 135°22'0 0.0
2017-Oct-09 04:17N 34°37' E 135°22'0 0.1
2017-Oct-09 03:59N 34°37' E 135°22'0 0.1
2017-Oct-09 03:17N 34°37' E 135°22'0 0.0
2017-Oct-09 02:59N 34°37' E 135°22'0 0.1
2017-Oct-09 02:29N 34°37' E 135°22'0 0.0
2017-Oct-09 01:59N 34°37' E 135°22'0 0.0
2017-Oct-09 01:11N 34°37' E 135°22'0 0.0
2017-Oct-09 00:47N 34°37' E 135°22'0 0.0
2017-Oct-09 00:29N 34°37' E 135°22'0 0.0
2017-Oct-08 23:47N 34°37' E 135°22'0 0.0
2017-Oct-08 23:29N 34°37' E 135°22'0 0.0
2017-Oct-08 22:41N 34°37' E 135°22'0 0.0
2017-Oct-08 21:29N 34°37' E 135°22'0 0.0
2017-Oct-08 20:35N 34°37' E 135°22'0 0.1
2017-Oct-08 20:23N 34°37' E 135°22'0 0.0
2017-Oct-08 19:35N 34°37' E 135°22'0 0.0
2017-Oct-08 19:17N 34°37' E 135°22'0 0.0
2017-Oct-08 18:59N 34°37' E 135°22'0 0.0
2017-Oct-08 18:29N 34°37' E 135°22'0 0.0
2017-Oct-08 17:59N 34°37' E 135°22'0 0.0
2017-Oct-08 17:29N 34°37' E 135°22'0 0.0
2017-Oct-08 16:59N 34°37' E 135°22'0 0.1
2017-Oct-08 16:23N 34°37' E 135°22'0 0.0
2017-Oct-08 15:59N 34°37' E 135°22'0 0.1
2017-Oct-08 15:29N 34°37' E 135°22'0 0.0
2017-Oct-08 14:59N 34°37' E 135°22'0 0.0
2017-Oct-08 14:29N 34°37' E 135°22'0 0.0
2017-Oct-08 13:59N 34°37' E 135°22'0 0.0
2017-Oct-08 13:29N 34°37' E 135°22'0 0.0
2017-Oct-08 12:47N 34°37' E 135°22'0 0.2
2017-Oct-08 12:29N 34°37' E 135°22'0 0.1
2017-Oct-08 11:47N 34°37' E 135°22'0 0.1
2017-Oct-08 11:23N 34°37' E 135°22'0 0.1
2017-Oct-08 10:59N 34°37' E 135°22'0 0.1
2017-Oct-08 10:29N 34°37' E 135°22'0 0.1
2017-Oct-08 09:53N 34°37' E 135°22'0 0.0
2017-Oct-08 09:23N 34°37' E 135°22'0 0.0
2017-Oct-08 08:59N 34°37' E 135°22'0 0.0
2017-Oct-08 08:29N 34°37' E 135°22'0 0.0
2017-Oct-08 07:59N 34°37' E 135°22'0 0.0
2017-Oct-08 07:29N 34°37' E 135°22'0 0.0
2017-Oct-08 07:00N 34°37' E 135°22'0 0.2
2017-Oct-08 06:31N 34°37' E 135°22'0 0.1
2017-Oct-08 05:58N 34°37' E 135°22'3 6.8
2017-Oct-08 05:30N 34°36' E 135°18'612.8
2017-Oct-08 05:01N 34°35' E 135°11'612.9
2017-Oct-08 04:30N 34°36' E 135°03'  
2017-Oct-04 08:48N 34°31' E 134°41'514.0
2017-Oct-04 08:29N 34°33' E 134°47'714.6
2017-Oct-04 08:00N 34°36' E 134°54'712.9
2017-Oct-04 07:30N 34°37' E 135°02'611.6
2017-Oct-04 07:00N 34°36' E 135°09'612.1
2017-Oct-04 06:30N 34°37' E 135°16'5 7.9
2017-Oct-04 05:55N 34°42' E 135°15'0 0.1
2017-Oct-04 05:25N 34°42' E 135°15'0 0.0
2017-Oct-04 04:55N 34°42' E 135°15'0 0.0
2017-Oct-04 04:25N 34°42' E 135°15'0 0.0
2017-Oct-04 03:55N 34°42' E 135°15'0 0.0
2017-Oct-04 03:19N 34°42' E 135°15'0 0.0
2017-Oct-04 02:55N 34°42' E 135°15'0 0.0
2017-Oct-04 02:19N 34°42' E 135°15'0 0.0
2017-Oct-04 01:55N 34°42' E 135°15'0 0.0
2017-Oct-04 01:25N 34°42' E 135°15'0 0.0
2017-Oct-04 00:31N 34°42' E 135°15'0 0.0
2017-Oct-04 00:25N 34°42' E 135°15'0 0.0
2017-Oct-03 23:55N 34°42' E 135°15'0 0.0
2017-Oct-03 23:25N 34°42' E 135°15'0 0.0
2017-Oct-03 22:43N 34°42' E 135°15'0 0.6
2017-Oct-03 22:29N 34°42' E 135°15'2 4.5
2017-Oct-03 22:01N 34°40' E 135°15'3 3.6
2017-Oct-03 21:12N 34°38' E 135°18'0 0.2
2017-Oct-03 21:00N 34°38' E 135°18'0 0.1
2017-Oct-03 20:30N 34°38' E 135°18'0 0.1
2017-Oct-03 20:00N 34°38' E 135°18'0 0.0
2017-Oct-03 19:30N 34°38' E 135°18'0 0.1
2017-Oct-03 19:00N 34°38' E 135°18'0 0.1
2017-Oct-03 18:30N 34°38' E 135°18'0 0.0
2017-Oct-03 18:00N 34°38' E 135°18'0 0.0
2017-Oct-03 17:24N 34°38' E 135°18'0 0.0
2017-Oct-03 17:00N 34°38' E 135°18'0 0.0
2017-Oct-03 16:24N 34°38' E 135°18'0 0.0
2017-Oct-03 16:00N 34°38' E 135°18'0 0.0
2017-Oct-03 15:30N 34°38' E 135°18'0 0.0
2017-Oct-03 15:00N 34°38' E 135°18'0 0.0
2017-Oct-03 14:00N 34°38' E 135°18'0 0.0
2017-Oct-03 12:36N 34°38' E 135°18'0 0.6
2017-Oct-03 12:30N 34°38' E 135°18'3 6.2
2017-Oct-03 12:00N 34°36' E 135°15'612.2
2017-Oct-03 11:30N 34°35' E 135°08'611.0
2017-Oct-03 11:00N 34°37' E 135°02'510.3
2017-Oct-03 10:30N 34°36' E 134°56'11 7.5
2017-Oct-03 09:05N 34°34' E 134°43'613.0
2017-Oct-03 08:37N 34°40' E 134°46'  

Dump ship's entire track history